• Join FlightAware (Why Join?)
  • Login
  • US Flag 
07:06AM EDT


 

Airport Tracker/Info


-or-


 

Live Flight TrackerFlight Track Log ✈ 9Y-BGI ✈ 09-Apr-2013 ✈ KJFK - MKJS / MBJ

Flight Track Log - Related Links

Times and Time Zones

All times are in EDT time to prevent confusion due to time zone crossing. See the 9Y-BGI flight status page for this flight to view local times or setup timezone preferences in your user account.

Time Position Orientation Groundspeed Altitude Reporting Facility
EDT Latitude Longitude Course Direction KTS MPH feet Rate Location/Type
04:02PM 40.6500 -73.8167 223° Southwest 169 194 1,600  Level New York TRACON
04:03PM 40.6000 -73.8333 194° South 246 283 3,100 2,100 Climbing New York TRACON
04:05PM 40.4931 -73.6611 129° Southeast 291 335 8,200 2,340 Climbing New York Center
04:06PM 40.4319 -73.5958 141° Southeast 311 358 10,500 2,040 Climbing New York Center
04:07PM 40.0829 -73.2505 223° Southwest  Level FlightAware Approximate
04:07PM 40.3444 -73.5078 143° Southeast 354 407 12,400  Level New York Center
04:08PM 40.2628 -73.4367 146° Southeast 386 444 15,400 2,940 Climbing New York Center
04:09PM 40.1519 -73.4514 186° South 362 417 18,400 2,460 Climbing New York Center
04:10PM 40.0550 -73.5044 203° Southwest 370 426 20,300 1,620 Climbing New York Center
04:12PM 39.8831 -73.6419 212° Southwest 388 447 23,000 1,560 Climbing Washington Center
04:13PM 39.7842 -73.7203 211° Southwest 404 465 24,900 1,380 Climbing Washington Center
04:14PM 39.6833 -73.8039 213° Southwest 425 489 25,800 1,200 Climbing Washington Center
04:15PM 39.5783 -73.8844 211° Southwest 436 502 27,400 1,620 Climbing Washington Center
04:16PM 39.4711 -73.9731 213° Southwest 450 518 29,100 1,740 Climbing Washington Center
04:17PM 39.3600 -74.0722 215° Southwest 450 518 30,900 1,740 Climbing Washington Center
04:18PM 39.2653 -74.1733 220° Southwest 450 518 32,600 1,440 Climbing Washington Center
04:19PM 39.1686 -74.2797 220° Southwest 455 524 33,800 1,320 Climbing Washington Center
04:20PM 39.0758 -74.3858 222° Southwest 455 524 35,300 1,320 Climbing Washington Center
04:21PM 38.9811 -74.4861 219° Southwest 455 524 36,500 1,080 Climbing Washington Center
04:22PM 38.8881 -74.5861 220° Southwest 455 524 37,500 720 Climbing Washington Center
04:23PM 38.7911 -74.6942 221° Southwest 455 524 38,000 240 Climbing Washington Center
04:24PM 38.6936 -74.7911 218° Southwest 455 524 38,000  Level Washington Center
04:25PM 38.5986 -74.8931 220° Southwest 455 524 38,000  Level Washington Center
04:26PM 38.5031 -75.0000 221° Southwest 455 524 38,000  Level Washington Center
04:27PM 38.4056 -75.1017 219° Southwest 455 524 38,000  Level Washington Center
04:28PM 38.3100 -75.2000 219° Southwest 455 524 38,000  Level Washington Center
04:29PM 38.2167 -75.2983 220° Southwest 450 518 38,000  Level Washington Center
04:30PM 38.1228 -75.4017 221° Southwest 450 518 38,000  Level Washington Center
04:31PM 38.0231 -75.4889 215° Southwest 450 518 38,000  Level Washington Center
04:32PM 37.9103 -75.5575 206° Southwest 450 518 38,000  Level Washington Center
04:33PM 37.7997 -75.6258 206° Southwest 444 511 38,000  Level Washington Center
04:34PM 37.6872 -75.6889 204° Southwest 444 511 38,000  Level Washington Center
04:35PM 37.5767 -75.7542 205° Southwest 444 511 38,000  Level Washington Center
04:36PM 37.4639 -75.8222 206° Southwest 444 511 38,000  Level Washington Center
04:37PM 37.3531 -75.8897 206° Southwest 444 511 38,000  Level Washington Center
04:38PM 37.2403 -75.9544 205° Southwest 444 511 38,000  Level Washington Center
04:39PM 37.1294 -76.0192 205° Southwest 444 511 38,000  Level Washington Center
04:40PM 37.0167 -76.0861 205° Southwest 444 511 38,000  Level Washington Center
04:41PM 36.8975 -76.1478 202° Southwest 449 517 38,000  Level Washington Center
04:42PM 36.7867 -76.2117 205° Southwest 454 522 38,000  Level Washington Center
04:43PM 36.6883 -76.2731 207° Southwest 449 517 38,000  Level Washington Center
04:44PM 36.5794 -76.3342 204° Southwest 443 510 38,000  Level Washington Center
04:45PM 36.4664 -76.3978 204° Southwest 443 510 38,000  Level Washington Center
04:46PM 36.3572 -76.4611 205° Southwest 443 510 38,000  Level Washington Center
04:47PM 36.2464 -76.5217 204° Southwest 443 510 38,000  Level Washington Center
04:48PM 36.1353 -76.5872 205° Southwest 443 510 38,000  Level Washington Center
04:49PM 36.0219 -76.6500 204° Southwest 443 510 38,000  Level Washington Center
04:50PM 35.9108 -76.7103 204° Southwest 443 510 38,000  Level Washington Center
04:51PM 35.7997 -76.7728 205° Southwest 443 510 38,000  Level Washington Center
04:52PM 35.6906 -76.8325 204° Southwest 443 510 38,000  Level Washington Center
04:53PM 35.5708 -76.9019 205° Southwest 443 510 38,000  Level Washington Center
04:54PM 35.4597 -76.9639 204° Southwest 443 510 38,000  Level Washington Center
04:55PM 35.3464 -77.0256 204° Southwest 443 510 38,000  Level Washington Center
04:56PM 35.2350 -77.0872 204° Southwest 448 516 38,000  Level Washington Center
04:57PM 35.1194 -77.1511 204° Southwest 448 516 38,000  Level Washington Center
04:58PM 35.0100 -77.2100 204° Southwest 448 516 38,000  Level Washington Center
04:59PM 34.8986 -77.2736 205° Southwest 448 516 38,000  Level Washington Center
05:00PM 34.7869 -77.3394 206° Southwest 448 516 38,000  Level Washington Center
05:01PM 34.6736 -77.3978 203° Southwest 448 516 38,000  Level Washington Center
05:02PM 34.5581 -77.4531 202° Southwest 448 516 38,000  Level Washington Center
05:03PM 34.4344 -77.4756 189° South 437 503 38,000  Level Washington Center
05:04PM 34.3111 -77.4953 188° South 442 509 38,000  Level Washington Center
05:05PM 34.1878 -77.5125 187° South 447 514 38,000  Level Washington Center
05:06PM 34.0642 -77.5347 188° South 452 520 38,000  Level Washington Center
05:09PM 33.7375 -77.5883 188° South 458 527 38,000  Level Jacksonville Center
05:10PM 33.6150 -77.6056 187° South 458 527 38,000  Level Jacksonville Center
05:11PM 33.4928 -77.6253 188° South 458 527 38,000  Level Jacksonville Center
05:12PM 33.3706 -77.6475 189° South 458 527 38,000  Level Jacksonville Center
05:13PM 33.2483 -77.6672 188° South 452 520 38,000  Level Jacksonville Center
05:14PM 33.1281 -77.6892 189° South 452 520 38,000  Level Jacksonville Center
05:15PM 33.0039 -77.7086 187° South 452 520 38,000  Level Jacksonville Center
05:16PM 32.8814 -77.7256 187° South 447 514 38,000  Level Jacksonville Center
05:17PM 32.7592 -77.7475 189° South 447 514 38,000  Level Jacksonville Center
05:18PM 32.6369 -77.7717 189° South 447 514 38,000  Level Jacksonville Center
05:19PM 32.5144 -77.7883 187° South 447 514 38,000  Level Jacksonville Center
05:20PM 32.3919 -77.8053 187° South 447 514 38,000  Level Jacksonville Center
05:21PM 32.2658 -77.8319 190° South 447 514 38,000  Level Jacksonville Center
05:22PM 32.1433 -77.8483 186° South 447 514 38,000  Level Jacksonville Center
05:23PM 32.0208 -77.8650 187° South 447 514 38,000  Level Jacksonville Center
05:24PM 31.8986 -77.8886 189° South 447 514 38,000  Level Jacksonville Center
05:25PM 31.7742 -77.9078 187° South 447 514 38,000  Level Jacksonville Center
05:26PM 31.6517 -77.9264 187° South 447 514 38,000  Level Jacksonville Center
05:27PM 31.5292 -77.9453 187° South 447 514 38,000  Level Jacksonville Center
05:28PM 31.4069 -77.9639 187° South 447 514 38,000  Level Jacksonville Center
05:29PM 31.2825 -77.9875 189° South 442 509 38,000  Level Jacksonville Center
05:30PM 31.1625 -78.0108 189° South 442 509 38,000  Level Jacksonville Center
05:31PM 31.0419 -78.0292 187° South 442 509 38,000  Level Jacksonville Center
05:32PM 30.9156 -78.0500 188° South 444 511 38,000  Level Jacksonville Center
05:33PM 30.7825 -78.0689 187° South 453 521 38,000  Level Jacksonville Center
05:34PM 30.6603 -78.0897 188° South 457 526 38,000  Level Jacksonville Center
05:36PM 30.3997 -78.1303 188° South 443 510 38,000  Level Miami Center
05:37PM 30.2703 -78.1503 188° South 448 516 38,000  Level Miami Center
05:38PM 30.1514 -78.1656 186° South 457 526 38,000  Level Miami Center
05:39PM 30.0178 -78.1953 191° South 457 526 38,000  Level Miami Center
05:40PM 29.8967 -78.2175 189° South 448 516 38,000  Level Miami Center
05:41PM 29.7692 -78.2281 184° South 448 516 38,000  Level Miami Center
05:42PM 29.6500 -78.2528 190° South 448 516 38,000  Level Miami Center
05:43PM 29.5269 -78.2678 186° South 443 510 38,000  Level Miami Center
05:44PM 29.4036 -78.2878 188° South 448 516 38,000  Level Miami Center
05:45PM 29.2803 -78.3053 187° South 359 413 38,000  Level Miami Center
05:46PM 29.1592 -78.3250 188° South 394 453 38,000  Level Miami Center
05:47PM 29.0358 -78.3422 187° South 437 503 38,000  Level Miami Center
05:48PM 28.9147 -78.3619 188° South 447 514 38,000  Level Miami Center
05:49PM 28.7872 -78.3792 187° South 452 520 38,000  Level Miami Center
05:50PM 28.6639 -78.3989 188° South 452 520 38,000  Level Miami Center
05:51PM 28.5406 -78.4161 187° South 446 513 38,000  Level Miami Center
05:52PM 28.4172 -78.4356 188° South 451 519 38,000  Level Miami Center
05:53PM 28.2917 -78.4528 187° South 457 526 38,000  Level Miami Center
05:54PM 28.1725 -78.4747 189° South 450 518 38,000  Level Miami Center
05:55PM 28.0492 -78.4917 187° South 445 512 38,000  Level Miami Center
05:56PM 27.9217 -78.5086 187° South 450 518 38,000  Level Miami Center
05:57PM 27.8044 -78.5258 187° South 450 518 38,000  Level Miami Center
05:58PM 27.6811 -78.5450 188° South 444 511 38,000  Level Miami Center
05:59PM 27.5556 -78.5644 188° South 449 517 38,000  Level Miami Center
06:00PM 27.4342 -78.5811 187° South 449 517 38,000  Level Miami Center
06:01PM 27.3108 -78.6006 188° South 449 517 38,000  Level Miami Center
06:02PM 27.1872 -78.6197 188° South 449 517 38,000  Level Miami Center
06:03PM 27.0617 -78.6386 188° South 449 517 38,000  Level Miami Center
06:04PM 26.9406 -78.6531 186° South 449 517 38,000  Level Miami Center
06:05PM 26.8400 -78.6681 188° South 449 517 38,000  Level Miami Center
06:06PM 26.7144 -78.6869 188° South 443 510 38,000  Level Miami Center
06:07PM 26.5847 -78.7011 186° South 449 517 38,000  Level Miami Center
06:08PM 26.4611 -78.7203 188° South 449 517 38,000  Level Miami Center
06:09PM 26.3336 -78.7367 187° South 449 517 38,000  Level Miami Center
06:10PM 26.2100 -78.7556 188° South 449 517 38,000  Level Miami Center
06:11PM 26.0886 -78.7769 189° South 454 522 38,000  Level Miami Center
06:12PM 25.9650 -78.7956 188° South 449 517 38,000  Level Miami Center
06:13PM 25.8417 -78.8122 187° South 444 511 38,000 180 Level Miami Center
06:14PM 25.7161 -78.8239 185° South 449 517 38,400 480 Climbing Miami Center
06:15PM 25.5844 -78.8219 179° South 459 528 39,000 300 Climbing Miami Center
06:16PM 25.4611 -78.8219 180° South 459 528 39,000  Level Miami Center
06:17PM 25.3317 -78.8222 180° South 459 528 39,000  Level Miami Center
06:18PM 25.2042 -78.8225 180° South 464 534 39,000  Level Miami Center
06:19PM 25.0767 -78.8275 182° South 458 527 39,000  Level Miami Center
06:20PM 24.9469 -78.8300 181° South 458 527 39,000  Level Miami Center
06:21PM 24.8194 -78.8347 182° South 458 527 39,000  Level Miami Center
06:22PM 24.6900 -78.8372 181° South 465 535 39,000  Level Miami Center
06:23PM 24.5644 -78.8397 181° South 458 527 39,000  Level Miami Center
06:24PM 24.4369 -78.8447 182° South 460 529 39,000  Level Miami Center
06:25PM 24.3075 -78.8450 180° South 460 529 39,000  Level Miami Center
06:26PM 24.1800 -78.8497 182° South 460 529 39,000  Level Miami Center
06:27PM 24.0544 -78.8522 181° South 460 529 39,000  Level Miami Center
06:29PM 23.8559 -78.8309 179° South  Level FlightAware Approximate
06:36PM 23.0221 -78.8169 179° South  Level FlightAware Approximate
06:37PM 22.9030 -78.8149 179° South  Level FlightAware Approximate
06:38PM 22.7839 -78.8130 179° South  Level FlightAware Approximate
06:39PM 22.6648 -78.8110 179° South  Level FlightAware Approximate
06:40PM 22.5457 -78.8090 179° South  Level FlightAware Approximate
06:41PM 22.4266 -78.8070 179° South  Level FlightAware Approximate
06:42PM 22.3075 -78.8051 179° South  Level FlightAware Approximate
06:43PM 22.1884 -78.8031 179° South  Level FlightAware Approximate
06:44PM 22.0693 -78.8011 179° South  Level FlightAware Approximate
06:45PM 21.9502 -78.8033 184° South  Level FlightAware Approximate
06:46PM 21.8313 -78.8113 184° South  Level FlightAware Approximate
06:47PM 21.7124 -78.8193 184° South  Level FlightAware Approximate
06:48PM 21.5935 -78.8272 184° South  Level FlightAware Approximate
06:49PM 21.4746 -78.8351 184° South  Level FlightAware Approximate
06:50PM 21.3557 -78.8431 184° South  Level FlightAware Approximate
06:51PM 21.2368 -78.8510 184° South  Level FlightAware Approximate
06:52PM 21.1179 -78.8588 184° South  Level FlightAware Approximate
06:53PM 20.9991 -78.8667 182° South  Level FlightAware Approximate
06:54PM 20.8800 -78.8721 182° South  Level FlightAware Approximate
06:55PM 20.7610 -78.8775 182° South  Level FlightAware Approximate
06:56PM 20.6420 -78.8829 182° South  Level FlightAware Approximate
06:57PM 20.5231 -78.8915 184° South  Level FlightAware Approximate
06:58PM 20.4043 -78.9003 184° South  Level FlightAware Approximate
06:59PM 20.2855 -78.9091 184° South  Level FlightAware Approximate
07:00PM 20.1666 -78.9167 180° South  Level FlightAware Approximate
07:01PM 20.0481 -78.9253 189° South  Level FlightAware Approximate
07:02PM 19.9454 -78.8867 150° Southeast  Level FlightAware Approximate
07:03PM 19.8427 -78.8225 150° Southeast  Level FlightAware Approximate
07:04PM 19.7435 -78.7524 146° Southeast  Level FlightAware Approximate
07:05PM 19.6446 -78.6818 146° Southeast  Level FlightAware Approximate
07:06PM 19.5444 -78.6135 148° Southeast  Level FlightAware Approximate
07:07PM 19.4430 -78.5472 148° Southeast  Level FlightAware Approximate
07:08PM 19.3416 -78.4809 148° Southeast  Level FlightAware Approximate
07:09PM 19.2402 -78.4146 148° Southeast  Level FlightAware Approximate
07:10PM 19.1390 -78.3482 148° Southeast  Level FlightAware Approximate
07:11PM 19.0382 -78.2810 148° Southeast  Level FlightAware Approximate
07:12PM 18.9364 -78.2156 149° Southeast  Level FlightAware Approximate
07:13PM 18.8343 -78.1506 149° Southeast  Level FlightAware Approximate
07:14PM 18.7372 -78.0779 145° Southeast  Level FlightAware Approximate
07:15PM 18.6395 -78.0062 137° Southeast  Level FlightAware Approximate
07:16PM 18.5344 -77.9511 137° Southeast  Level FlightAware Approximate
07:17PM 18.5037 -77.9134 90° East  Level Estimated
07:18PM 18.5037 -77.9134 90° East  Level Estimated
07:19PM 18.5037 -77.9134 90° East  Level Estimated
07:20PM 18.5037 -77.9134 90° East  Level Estimated
07:21PM 18.5037 -77.9134 90° East  Level Estimated
07:22PM 18.5037 -77.9134 90° East  Level Estimated
07:23PM 18.5037 -77.9134 90° East  Level Estimated
07:24PM 18.5037 -77.9134 90° East  Level Estimated
07:25PM 18.5037 -77.9134 90° East  Level Estimated
07:26PM 18.5037 -77.9134 90° East  Level Estimated
07:27PM 18.5037 -77.9134 90° East  Level Estimated
07:28PM 18.5037 -77.9134 90° East  Level Estimated
07:29PM 18.5037 -77.9134 90° East  Level Estimated
07:30PM 18.5037 -77.9134 90° East  Level Estimated
07:31PM 18.5037 -77.9134 90° East  Level Estimated
07:32PM 18.5037 -77.9134 90° East  Level Estimated
07:33PM 18.5037 -77.9134 90° East  Level Estimated
07:34PM 18.5037 -77.9134 90° East  Level Estimated
07:35PM 18.5037 -77.9134 90° East  Level Estimated
07:36PM 18.5037 -77.9134 90° East  Level Estimated